Time;durP1;ratioP1;P1;durP2;ratioP2;P2;SDS_P1;SDS_P2;PMS_P1;PMS_P2;Temp;Humidity;BMP_temperature;BMP_pressure;BME280_temperature;BME280_humidity;BME280_pressure;Samples;Min_cycle;Max_cycle;Signal;HPM_P1;HPM_P2
2023/08/09 00:00:22;;;;;;;0.93;0.93;;;15.30;99.90;;;;;;4994959;28;20720;-77
2023/08/09 00:02:50;;;;;;;1.80;1.10;;;15.30;99.90;;;;;;5026021;28;20227;-77
2023/08/09 00:05:17;;;;;;;1.10;1.00;;;15.40;99.90;;;;;;5021645;28;20207;-77
2023/08/09 00:07:45;;;;;;;1.48;1.27;;;15.30;99.90;;;;;;5012282;28;20196;-78
2023/08/09 00:10:13;;;;;;;1.00;0.70;;;15.40;99.90;;;;;;5010698;28;20192;-78
2023/08/09 00:12:41;;;;;;;2.70;1.17;;;15.30;99.90;;;;;;4997831;28;20191;-78
2023/08/09 00:15:09;;;;;;;1.17;1.02;;;15.40;99.90;;;;;;5013499;28;20468;-78
2023/08/09 00:17:37;;;;;;;1.80;1.20;;;15.50;99.90;;;;;;4989063;28;20212;-77
2023/08/09 00:20:07;;;;;;;1.60;1.10;;;15.40;99.90;;;;;;4988549;28;20210;-77
2023/08/09 00:22:34;;;;;;;1.10;1.00;;;15.30;99.90;;;;;;4994652;28;20222;-77
2023/08/09 00:25:02;;;;;;;0.95;0.95;;;15.30;99.90;;;;;;5017195;28;20222;-77
2023/08/09 00:27:31;;;;;;;1.27;1.00;;;15.30;99.90;;;;;;4992422;28;20199;-77
2023/08/09 00:29:58;;;;;;;1.00;0.90;;;15.40;99.90;;;;;;5032304;28;20226;-77
2023/08/09 00:32:26;;;;;;;1.35;1.25;;;15.50;99.90;;;;;;4994598;28;20203;-77
2023/08/09 00:34:53;;;;;;;1.00;0.90;;;15.40;99.90;;;;;;4988647;28;20224;-77
2023/08/09 00:37:21;;;;;;;1.05;0.90;;;15.40;99.90;;;;;;5024040;28;20202;-78
2023/08/09 00:39:49;;;;;;;1.10;1.00;;;15.40;99.90;;;;;;4990067;28;20203;-78
2023/08/09 00:42:16;;;;;;;1.25;0.85;;;15.40;99.90;;;;;;5010884;28;20220;-78
2023/08/09 00:44:45;;;;;;;1.50;1.27;;;15.40;99.90;;;;;;5028833;28;20228;-78
2023/08/09 00:47:13;;;;;;;1.33;1.10;;;15.50;99.90;;;;;;5003431;28;20196;-78
2023/08/09 00:49:44;;;;;;;1.70;1.50;;;15.50;99.90;;;;;;5011940;28;20666;-78
2023/08/09 00:52:12;;;;;;;1.35;1.25;;;15.50;99.90;;;;;;5014330;28;20201;-78
2023/08/09 00:54:40;;;;;;;1.60;1.50;;;15.40;99.90;;;;;;5015778;28;20223;-77
2023/08/09 00:57:07;;;;;;;1.55;1.45;;;15.40;99.90;;;;;;4996532;28;20207;-78
2023/08/09 00:59:35;;;;;;;2.15;1.95;;;15.40;99.90;;;;;;5028614;28;20576;-78
2023/08/09 01:02:04;;;;;;;1.42;1.33;;;15.30;99.90;;;;;;5021332;28;20226;-78
2023/08/09 01:04:32;;;;;;;1.80;1.70;;;15.40;99.90;;;;;;5000779;28;20227;-78
2023/08/09 01:07:09;;;;;;;3.00;1.20;;;15.50;99.90;;;;;;5009348;28;20208;-78
2023/08/09 01:09:42;;;;;;;1.90;1.70;;;15.50;99.90;;;;;;5023795;28;20226;-78
2023/08/09 01:12:15;;;;;;;1.80;1.70;;;15.60;99.90;;;;;;5002939;28;20192;-78
2023/08/09 01:14:44;;;;;;;2.53;2.13;;;15.50;99.90;;;;;;5023159;28;20219;-80
2023/08/09 01:17:16;;;;;;;1.95;1.83;;;15.50;99.90;;;;;;5001410;28;20657;-80
2023/08/09 01:19:50;;;;;;;2.22;1.92;;;15.50;99.90;;;;;;5036285;28;20199;-80
2023/08/09 01:22:21;;;;;;;2.63;1.80;;;15.50;99.90;;;;;;5032604;28;20217;-80
2023/08/09 01:24:51;;;;;;;3.00;2.58;;;15.40;99.90;;;;;;4998982;28;20224;-80
2023/08/09 01:27:18;;;;;;;2.30;2.10;;;15.20;99.90;;;;;;4997757;28;20590;-80
2023/08/09 01:29:47;;;;;;;2.47;2.25;;;15.10;99.90;;;;;;4992924;28;20202;-80
2023/08/09 01:32:15;;;;;;;2.55;2.35;;;15.20;99.90;;;;;;5016092;28;20199;-80
2023/08/09 01:34:42;;;;;;;2.25;2.05;;;15.30;99.90;;;;;;4997623;28;20216;-80
2023/08/09 01:37:16;;;;;;;2.67;2.47;;;15.40;99.90;;;;;;4997177;28;20208;-80
2023/08/09 01:39:46;;;;;;;2.70;2.28;;;15.40;99.90;;;;;;4995433;28;20203;-80
2023/08/09 01:42:15;;;;;;;3.15;2.90;;;15.40;99.90;;;;;;5029525;28;20220;-80
2023/08/09 01:44:43;;;;;;;2.67;2.47;;;15.40;99.90;;;;;;4997079;28;20594;-80
2023/08/09 01:47:13;;;;;;;2.63;2.42;;;15.50;99.90;;;;;;4997491;28;20696;-80
2023/08/09 01:49:46;;;;;;;2.90;2.38;;;15.40;99.90;;;;;;4993481;28;20200;-78
2023/08/09 01:52:13;;;;;;;2.08;1.70;;;15.20;99.90;;;;;;5015283;28;20192;-78
2023/08/09 01:54:40;;;;;;;1.50;1.40;;;15.30;99.90;;;;;;5032726;28;20223;-78
2023/08/09 01:57:08;;;;;;;1.35;1.25;;;15.30;99.90;;;;;;5018202;28;20195;-78
2023/08/09 01:59:37;;;;;;;1.42;1.20;;;15.30;99.90;;;;;;5011136;28;20725;-78
2023/08/09 02:02:05;;;;;;;1.42;1.20;;;15.40;99.90;;;;;;5002024;28;20211;-78
2023/08/09 02:04:32;;;;;;;1.20;1.10;;;15.30;99.90;;;;;;5005983;28;20250;-78
2023/08/09 02:06:59;;;;;;;1.40;1.30;;;15.40;99.90;;;;;;5019575;28;20195;-78
2023/08/09 02:09:28;;;;;;;1.40;1.30;;;15.40;99.90;;;;;;5012421;28;20200;-78
2023/08/09 02:11:56;;;;;;;1.52;1.42;;;15.40;99.90;;;;;;5029588;28;20200;-78
2023/08/09 02:14:23;;;;;;;2.50;2.13;;;15.40;99.90;;;;;;5010118;28;20223;-78
2023/08/09 02:16:52;;;;;;;2.70;2.50;;;15.30;99.90;;;;;;5004932;28;20283;-78
2023/08/09 02:19:19;;;;;;;3.90;2.90;;;15.40;99.90;;;;;;5011953;28;20202;-78
2023/08/09 02:21:47;;;;;;;3.83;3.45;;;15.40;99.90;;;;;;4999610;28;20206;-78
2023/08/09 02:24:15;;;;;;;4.57;3.80;;;15.20;99.90;;;;;;5013608;28;20223;-78
2023/08/09 02:26:43;;;;;;;5.72;4.35;;;15.30;99.90;;;;;;4992354;28;20210;-78
2023/08/09 02:29:10;;;;;;;5.70;4.20;;;15.20;99.90;;;;;;4994772;28;20646;-78
2023/08/09 02:31:38;;;;;;;4.00;3.60;;;15.10;99.90;;;;;;4995213;28;20322;-78
2023/08/09 02:34:07;;;;;;;6.43;4.10;;;15.00;99.90;;;;;;5015926;28;20203;-78
2023/08/09 02:36:34;;;;;;;4.72;4.13;;;14.90;99.90;;;;;;5028247;28;20199;-78
2023/08/09 02:39:03;;;;;;;5.00;4.35;;;14.90;99.90;;;;;;4994635;28;20200;-78
2023/08/09 02:41:30;;;;;;;5.65;4.90;;;15.00;99.90;;;;;;4991947;28;20576;-78
2023/08/09 02:43:58;;;;;;;5.70;4.90;;;14.90;99.90;;;;;;4995123;28;20211;-78
2023/08/09 02:46:26;;;;;;;7.43;5.65;;;14.90;99.90;;;;;;5032804;28;20196;-78
2023/08/09 02:48:53;;;;;;;6.70;5.10;;;14.80;99.90;;;;;;5015516;28;20202;-78
2023/08/09 02:51:22;;;;;;;8.23;6.63;;;14.80;99.90;;;;;;5022859;28;20208;-78
2023/08/09 02:54:00;;;;;;;7.85;6.53;;;14.80;99.90;;;;;;4994655;28;20195;-78
2023/08/09 02:56:27;;;;;;;6.07;5.47;;;14.90;99.90;;;;;;5009417;28;20208;-78
2023/08/09 02:58:55;;;;;;;8.02;6.63;;;15.00;99.90;;;;;;5000549;28;20680;-78
2023/08/09 03:01:23;;;;;;;7.28;6.55;;;15.10;99.90;;;;;;4994311;28;20207;-78
2023/08/09 03:03:51;;;;;;;7.55;6.63;;;15.10;99.90;;;;;;4997614;28;20592;-78
2023/08/09 03:06:21;;;;;;;6.97;6.13;;;14.90;99.90;;;;;;4997824;28;20585;-78
2023/08/09 03:08:50;;;;;;;9.02;7.32;;;15.00;99.90;;;;;;5025618;28;20219;-78
2023/08/09 03:11:19;;;;;;;8.00;7.20;;;15.10;99.90;;;;;;5002518;28;20197;-79
2023/08/09 03:13:46;;;;;;;8.18;7.25;;;15.10;99.90;;;;;;4995798;28;20198;-78
2023/08/09 03:16:14;;;;;;;8.50;6.47;;;15.20;99.90;;;;;;5010610;28;20223;-78
2023/08/09 03:18:41;;;;;;;8.32;7.38;;;15.20;99.90;;;;;;5006629;28;20203;-78
2023/08/09 03:21:10;;;;;;;9.02;7.50;;;15.20;99.90;;;;;;5028621;28;20206;-78
2023/08/09 03:23:37;;;;;;;8.23;7.43;;;15.20;99.90;;;;;;5021413;28;20208;-78
2023/08/09 03:26:06;;;;;;;8.77;7.75;;;15.10;99.90;;;;;;5029056;28;20242;-78
2023/08/09 03:28:36;;;;;;;8.18;7.38;;;15.10;99.90;;;;;;5028085;28;20199;-78
2023/08/09 03:31:05;;;;;;;13.57;10.98;;;15.10;99.90;;;;;;5014165;28;20199;-78
2023/08/09 03:33:37;;;;;;;13.27;10.73;;;14.90;99.90;;;;;;5011815;28;20195;-78
2023/08/09 03:36:06;;;;;;;12.35;10.00;;;14.80;99.90;;;;;;4985744;28;20220;-78
2023/08/09 03:38:34;;;;;;;14.27;11.68;;;14.80;99.90;;;;;;4998689;28;20191;-78
2023/08/09 03:41:02;;;;;;;17.60;13.93;;;14.80;99.90;;;;;;5013899;28;20202;-78
2023/08/09 03:43:32;;;;;;;21.13;15.20;;;14.90;99.90;;;;;;5001748;28;20219;-78
2023/08/09 03:46:00;;;;;;;22.33;16.10;;;14.80;99.90;;;;;;4997229;28;20223;-78
2023/08/09 03:48:28;;;;;;;24.13;17.20;;;14.80;99.90;;;;;;4995649;28;20207;-78
2023/08/09 03:50:56;;;;;;;24.27;17.58;;;14.80;99.90;;;;;;5010483;28;20192;-78
2023/08/09 03:53:23;;;;;;;21.17;16.67;;;14.80;99.90;;;;;;5014305;28;20215;-78
2023/08/09 03:55:51;;;;;;;19.75;15.30;;;14.80;99.90;;;;;;4992271;28;20223;-78
2023/08/09 03:58:18;;;;;;;22.92;16.35;;;14.90;99.90;;;;;;5003942;28;20208;-78
2023/08/09 04:00:47;;;;;;;22.70;17.30;;;14.90;99.90;;;;;;4997446;28;20199;-78
2023/08/09 04:03:14;;;;;;;21.15;15.85;;;15.00;99.90;;;;;;5011708;28;20198;-78
2023/08/09 04:05:42;;;;;;;26.65;19.58;;;15.00;99.90;;;;;;5011613;28;20211;-78
2023/08/09 04:08:10;;;;;;;23.45;17.58;;;15.00;99.90;;;;;;5010977;28;20211;-78
2023/08/09 04:10:38;;;;;;;24.33;17.02;;;15.00;99.90;;;;;;5000459;28;20200;-78
2023/08/09 04:13:05;;;;;;;27.23;18.70;;;15.00;99.90;;;;;;5003159;28;20204;-78
2023/08/09 04:15:34;;;;;;;27.40;18.45;;;15.00;99.90;;;;;;5001369;28;20228;-78
2023/08/09 04:18:03;;;;;;;27.13;18.70;;;14.90;99.90;;;;;;5007967;28;20195;-78
2023/08/09 04:20:31;;;;;;;22.70;16.17;;;14.90;99.90;;;;;;4991529;28;20200;-78
2023/08/09 04:23:00;;;;;;;24.13;17.55;;;15.00;99.90;;;;;;4996366;28;20654;-78
2023/08/09 04:25:27;;;;;;;21.52;16.42;;;15.00;99.90;;;;;;4998421;28;20223;-78
2023/08/09 04:27:55;;;;;;;24.10;16.45;;;15.10;99.90;;;;;;5000832;28;20254;-78
2023/08/09 04:30:23;;;;;;;23.55;17.50;;;15.10;99.90;;;;;;5017420;28;20207;-78
2023/08/09 04:32:52;;;;;;;24.95;17.73;;;15.00;99.90;;;;;;5004060;28;20196;-78
2023/08/09 04:35:21;;;;;;;21.52;15.48;;;15.00;99.90;;;;;;4992852;28;20234;-78
2023/08/09 04:37:48;;;;;;;19.88;15.75;;;15.10;99.90;;;;;;5006863;28;20204;-78
2023/08/09 04:40:15;;;;;;;21.33;14.57;;;15.10;99.90;;;;;;4994912;28;20211;-78
2023/08/09 04:42:45;;;;;;;19.48;15.27;;;15.10;99.90;;;;;;5011805;28;20207;-78
2023/08/09 04:45:14;;;;;;;20.08;15.45;;;15.10;99.90;;;;;;4993076;28;20235;-78
2023/08/09 04:47:42;;;;;;;19.98;15.18;;;15.10;99.90;;;;;;4997888;28;20204;-79
2023/08/09 04:50:10;;;;;;;22.83;15.70;;;15.10;99.90;;;;;;5010180;28;20550;-79
2023/08/09 04:52:39;;;;;;;19.35;14.32;;;15.00;99.90;;;;;;5003357;28;20211;-79
2023/08/09 04:55:07;;;;;;;17.77;14.13;;;15.00;99.90;;;;;;4992163;28;20216;-79
2023/08/09 04:57:34;;;;;;;19.23;15.00;;;15.10;99.90;;;;;;5004067;28;20677;-79
2023/08/09 05:00:02;;;;;;;16.23;13.27;;;15.10;99.90;;;;;;5025763;28;20196;-79
2023/08/09 05:02:35;;;;;;;18.55;13.52;;;14.90;99.90;;;;;;5022382;28;20214;-79
2023/08/09 05:05:03;;;;;;;17.42;14.02;;;15.00;99.90;;;;;;5001021;28;20235;-79
2023/08/09 05:07:31;;;;;;;18.30;14.18;;;15.00;99.90;;;;;;5002960;28;20208;-79
2023/08/09 05:10:00;;;;;;;17.83;14.60;;;15.00;99.90;;;;;;5000912;28;20196;-79
2023/08/09 05:12:28;;;;;;;17.02;13.63;;;14.90;99.90;;;;;;4994030;28;20219;-78
2023/08/09 05:14:57;;;;;;;16.83;13.38;;;15.00;99.90;;;;;;4994912;28;20216;-79
2023/08/09 05:17:24;;;;;;;17.38;14.10;;;15.10;99.90;;;;;;5021432;28;20210;-79
2023/08/09 05:19:52;;;;;;;19.80;14.68;;;15.10;99.90;;;;;;4999517;28;20206;-79
2023/08/09 05:22:20;;;;;;;17.67;13.98;;;15.00;99.90;;;;;;5012413;28;20197;-79
2023/08/09 05:24:47;;;;;;;16.80;13.95;;;15.00;99.90;;;;;;4996216;28;20227;-79
2023/08/09 05:27:16;;;;;;;16.80;14.25;;;15.10;99.90;;;;;;4992326;28;20202;-79
2023/08/09 05:29:43;;;;;;;16.88;13.60;;;15.10;99.90;;;;;;4999086;28;20211;-79
2023/08/09 05:32:32;;;;;;;18.63;14.68;;;15.10;99.90;;;;;;5014671;28;20223;-79
2023/08/09 05:35:21;;;;;;;18.00;14.40;;;15.00;99.90;;;;;;5021932;28;20215;-79
2023/08/09 05:37:48;;;;;;;18.65;14.32;;;14.90;99.90;;;;;;5009258;28;20618;-79
2023/08/09 05:40:19;;;;;;;17.45;14.40;;;14.70;99.90;;;;;;4999111;28;20211;-79
2023/08/09 05:42:48;;;;;;;17.42;14.25;;;14.70;99.90;;;;;;5018228;28;20205;-78
2023/08/09 05:45:15;;;;;;;18.80;15.32;;;14.70;99.90;;;;;;5014160;28;20228;-78
2023/08/09 05:47:43;;;;;;;18.15;15.88;;;14.60;99.90;;;;;;5000264;28;20656;-78
2023/08/09 05:50:11;;;;;;;19.75;15.23;;;14.60;99.90;;;;;;5006311;28;20207;-79
2023/08/09 05:52:40;;;;;;;22.75;15.43;;;14.60;99.90;;;;;;5001929;28;20199;-79
2023/08/09 05:55:09;;;;;;;20.05;14.88;;;15.40;99.90;;;;;;5001409;28;20220;-79
2023/08/09 05:57:38;;;;;;;18.15;14.60;;;15.70;99.90;;;;;;4996868;28;20567;-79
2023/08/09 06:00:15;;;;;;;16.98;12.77;;;15.70;99.90;;;;;;4993988;28;20573;-79
2023/08/09 06:02:48;;;;;;;15.50;12.95;;;15.80;99.90;;;;;;5000926;28;20207;-79
2023/08/09 06:05:21;;;;;;;17.38;13.48;;;16.10;99.90;;;;;;5014287;28;20207;-79
2023/08/09 06:07:56;;;;;;;15.50;12.23;;;16.00;99.90;;;;;;5023779;28;20199;-78
2023/08/09 06:10:25;;;;;;;15.10;12.10;;;16.20;99.90;;;;;;5020366;28;20199;-78
2023/08/09 06:12:55;;;;;;;15.77;11.45;;;16.10;99.90;;;;;;5022050;28;20196;-78
2023/08/09 06:15:24;;;;;;;14.60;11.27;;;16.30;99.90;;;;;;4998339;28;20222;-79
2023/08/09 06:17:53;;;;;;;15.35;11.75;;;16.40;99.90;;;;;;5017628;28;20203;-78
2023/08/09 06:20:22;;;;;;;12.20;10.30;;;16.40;99.90;;;;;;4988899;28;20207;-78
2023/08/09 06:22:49;;;;;;;11.90;10.63;;;16.40;99.90;;;;;;4999864;28;20203;-76
2023/08/09 06:25:17;;;;;;;12.75;11.05;;;16.80;99.90;;;;;;4985474;28;20230;-76
2023/08/09 06:27:50;;;;;;;17.13;11.88;;;16.70;99.90;;;;;;4984644;28;20203;-78
2023/08/09 06:30:17;;;;;;;17.15;12.95;;;16.80;99.90;;;;;;5005655;28;20200;-77
2023/08/09 06:32:48;;;;;;;14.23;11.45;;;16.70;99.90;;;;;;5005576;28;20568;-76
2023/08/09 06:35:15;;;;;;;12.38;10.80;;;16.80;99.90;;;;;;4997704;28;20230;-77
2023/08/09 06:37:43;;;;;;;14.40;10.57;;;16.60;99.90;;;;;;5003304;28;20199;-76
2023/08/09 06:40:11;;;;;;;11.02;9.77;;;16.70;99.90;;;;;;5006070;28;20544;-76
2023/08/09 06:42:39;;;;;;;11.15;10.02;;;16.70;99.90;;;;;;5022681;28;20204;-76
2023/08/09 06:45:11;;;;;;;11.75;10.57;;;16.70;99.90;;;;;;4994353;28;20220;-76
2023/08/09 06:47:39;;;;;;;12.25;10.95;;;16.70;1.00;;;;;;5016415;28;20204;-77
2023/08/09 06:50:08;;;;;;;10.27;9.18;;;16.70;1.00;;;;;;4999695;28;20210;-77
2023/08/09 06:52:37;;;;;;;17.67;14.88;;;16.80;1.00;;;;;;5001579;28;20200;-76
2023/08/09 06:55:05;;;;;;;17.02;14.45;;;16.20;1.00;;;;;;5002506;28;20222;-77
2023/08/09 06:57:32;;;;;;;18.98;15.10;;;15.50;99.90;;;;;;5002762;28;20204;-76
2023/08/09 07:00:00;;;;;;;17.67;14.70;;;15.40;99.90;;;;;;4994252;28;20196;-76
2023/08/09 07:02:28;;;;;;;16.88;15.07;;;15.80;99.90;;;;;;4999064;28;20200;-76
2023/08/09 07:05:01;;;;;;;21.23;14.75;;;16.10;99.90;;;;;;5002329;28;20223;-76
2023/08/09 07:07:29;;;;;;;17.35;14.60;;;16.40;99.90;;;;;;4994911;28;20204;-78
2023/08/09 07:09:57;;;;;;;15.90;13.93;;;16.30;99.90;;;;;;4993688;28;20203;-77
2023/08/09 07:12:25;;;;;;;16.30;14.60;;;16.60;1.00;;;;;;4993990;28;20388;-77
2023/08/09 07:14:52;;;;;;;15.38;12.90;;;16.20;1.00;;;;;;5005891;28;20207;-76
2023/08/09 07:17:19;;;;;;;15.45;13.85;;;16.50;1.00;;;;;;5002416;28;20200;-76
2023/08/09 07:19:47;;;;;;;14.68;13.18;;;16.10;1.00;;;;;;5018244;28;20198;-79
2023/08/09 07:22:14;;;;;;;15.45;13.90;;;16.20;1.00;;;;;;5001176;28;20203;-76
2023/08/09 07:24:43;;;;;;;15.57;13.35;;;16.00;1.00;;;;;;5026728;28;20689;-76
2023/08/09 07:27:10;;;;;;;15.10;13.52;;;15.70;22.20;;;;;;5004619;28;20196;-75
2023/08/09 07:29:39;;;;;;;16.08;13.45;;;15.80;99.90;;;;;;4992063;28;20208;-77
2023/08/09 07:32:07;;;;;;;13.73;12.32;;;15.80;99.90;;;;;;4986216;28;20203;-76
2023/08/09 07:34:35;;;;;;;13.32;11.55;;;16.00;99.90;;;;;;4991705;28;20234;-78
2023/08/09 07:37:02;;;;;;;13.35;11.98;;;16.40;40.60;;;;;;4983560;28;20200;-76
2023/08/09 07:39:29;;;;;;;14.85;13.43;;;16.90;1.00;;;;;;4995479;28;20672;-80
2023/08/09 07:41:59;;;;;;;15.30;13.35;;;16.40;1.00;;;;;;4992137;28;20199;-76
2023/08/09 07:44:26;;;;;;;14.23;12.73;;;16.20;99.90;;;;;;5007413;28;20231;-76
2023/08/09 07:46:54;;;;;;;19.48;13.85;;;16.40;46.00;;;;;;4994105;28;20299;-77
2023/08/09 07:49:21;;;;;;;15.13;13.52;;;16.60;99.90;;;;;;4993943;28;20204;-77
2023/08/09 07:51:49;;;;;;;15.95;13.77;;;16.70;1.00;;;;;;4987491;28;20219;-77
2023/08/09 07:54:16;;;;;;;15.23;13.30;;;16.70;99.90;;;;;;5005735;28;20211;-77
2023/08/09 07:56:44;;;;;;;14.15;12.63;;;16.70;99.90;;;;;;5008206;28;20187;-77
2023/08/09 07:59:12;;;;;;;15.25;13.55;;;16.60;1.00;;;;;;4990004;28;20204;-77
2023/08/09 08:01:40;;;;;;;14.43;12.43;;;16.70;1.00;;;;;;4986751;28;20211;-77
2023/08/09 08:04:08;;;;;;;14.35;11.20;;;16.70;1.00;;;;;;4991693;28;20200;-77
2023/08/09 08:06:35;;;;;;;13.20;11.35;;;16.60;99.90;;;;;;4975057;28;20232;-77
2023/08/09 08:09:03;;;;;;;12.10;10.85;;;16.60;99.90;;;;;;4995426;28;20563;-77
2023/08/09 08:11:31;;;;;;;11.32;10.23;;;16.80;99.90;;;;;;4996632;28;20208;-77
2023/08/09 08:13:59;;;;;;;11.25;9.88;;;17.10;99.90;;;;;;5011868;28;20188;-77
2023/08/09 08:16:28;;;;;;;12.73;10.90;;;17.30;3.90;;;;;;5033447;28;20195;-77
2023/08/09 08:18:55;;;;;;;13.98;12.05;;;16.80;1.00;;;;;;4991130;28;20195;-77
2023/08/09 08:21:22;;;;;;;13.13;11.82;;;16.90;99.90;;;;;;4995327;28;20199;-77
2023/08/09 08:23:50;;;;;;;11.43;10.25;;;16.60;1.90;;;;;;4997720;28;20684;-79
2023/08/09 08:26:18;;;;;;;13.43;12.10;;;16.90;1.00;;;;;;4989085;28;20220;-77
2023/08/09 08:28:49;;;;;;;14.18;11.88;;;17.10;6.50;;;;;;5001438;28;20208;-79
2023/08/09 08:31:19;;;;;;;12.90;11.68;;;17.20;99.90;;;;;;5002373;28;20199;-78
2023/08/09 08:33:49;;;;;;;11.93;10.73;;;17.20;1.00;;;;;;5002825;28;20560;-78
2023/08/09 08:36:16;;;;;;;11.25;10.15;;;17.10;99.90;;;;;;5019283;28;20221;-78
2023/08/09 08:38:44;;;;;;;11.40;10.30;;;17.20;1.00;;;;;;5037653;28;20202;-78
2023/08/09 08:41:11;;;;;;;12.55;11.25;;;17.20;1.00;;;;;;5013244;28;20537;-78
2023/08/09 08:43:39;;;;;;;12.05;10.85;;;17.30;1.00;;;;;;5008522;28;20211;-78
2023/08/09 08:46:06;;;;;;;12.40;11.10;;;17.30;99.90;;;;;;5010726;28;20219;-78
2023/08/09 08:48:34;;;;;;;12.15;10.80;;;17.50;1.00;;;;;;5037636;28;20191;-78
2023/08/09 08:51:05;;;;;;;13.23;11.82;;;17.60;1.00;;;;;;5013555;28;20206;-78
2023/08/09 08:53:33;;;;;;;12.75;11.43;;;17.60;1.00;;;;;;5027514;28;20188;-78
2023/08/09 08:56:01;;;;;;;15.48;12.40;;;17.80;1.00;;;;;;4999000;28;20234;-78
2023/08/09 08:58:28;;;;;;;15.32;12.15;;;17.90;1.00;;;;;;4999281;28;20199;-78
2023/08/09 09:00:56;;;;;;;13.93;11.93;;;17.80;1.00;;;;;;5001596;28;20203;-78
2023/08/09 09:03:23;;;;;;;13.18;11.52;;;17.90;1.00;;;;;;5010789;28;20200;-78
2023/08/09 09:05:51;;;;;;;14.55;13.05;;;17.70;1.00;;;;;;5024139;28;20217;-78
2023/08/09 09:08:20;;;;;;;15.57;13.35;;;17.60;82.40;;;;;;5015116;28;20202;-78
2023/08/09 09:10:53;;;;;;;14.13;12.73;;;17.40;1.00;;;;;;5018383;28;20206;-78
2023/08/09 09:13:25;;;;;;;12.35;11.05;;;17.30;1.00;;;;;;5036940;28;20213;-78
2023/08/09 09:15:54;;;;;;;13.40;11.05;;;17.10;99.90;;;;;;5002177;28;20211;-78
2023/08/09 09:18:22;;;;;;;13.15;11.15;;;17.20;1.00;;;;;;5033481;28;20198;-78
2023/08/09 09:20:51;;;;;;;14.63;12.13;;;17.50;99.90;;;;;;5036326;28;20199;-78
2023/08/09 09:23:28;;;;;;;14.18;12.65;;;17.60;1.00;;;;;;5012164;28;20214;-78
2023/08/09 09:26:03;;;;;;;15.90;13.95;;;17.80;1.00;;;;;;5001633;28;20228;-78
2023/08/09 09:28:39;;;;;;;18.60;13.40;;;17.70;1.00;;;;;;4997792;28;20195;-78
2023/08/09 09:31:07;;;;;;;17.38;12.65;;;17.70;99.90;;;;;;5003998;28;20194;-78
2023/08/09 09:33:35;;;;;;;16.65;11.85;;;17.60;1.00;;;;;;5003326;28;20219;-78
2023/08/09 09:36:11;;;;;;;12.30;10.38;;;17.70;1.00;;;;;;5002586;28;20246;-78
2023/08/09 09:38:40;;;;;;;15.95;11.35;;;17.80;99.90;;;;;;4992882;28;20207;-78
2023/08/09 09:41:09;;;;;;;13.90;11.93;;;17.80;1.00;;;;;;4990759;28;20191;-78
2023/08/09 09:43:57;;;;;;;13.77;11.60;;;17.90;1.00;;;;;;5006588;28;20207;-78
2023/08/09 09:46:25;;;;;;;12.75;10.57;;;18.10;1.00;;;;;;5003986;28;20238;-78
2023/08/09 09:49:00;;;;;;;9.85;8.20;;;17.90;53.90;;;;;;5009309;28;20218;-78
2023/08/09 09:51:28;;;;;;;10.70;8.73;;;17.80;99.90;;;;;;5002069;28;20203;-78
2023/08/09 09:54:06;;;;;;;12.10;9.68;;;17.90;99.90;;;;;;5006898;28;20207;-78
2023/08/09 09:56:35;;;;;;;12.45;10.63;;;18.10;99.90;;;;;;5014397;28;20200;-78
2023/08/09 09:59:04;;;;;;;13.98;10.40;;;18.20;99.90;;;;;;5011416;28;20196;-78
2023/08/09 10:01:42;;;;;;;16.00;11.05;;;18.30;99.90;;;;;;4999845;28;20696;-78
2023/08/09 10:04:12;;;;;;;14.82;11.13;;;18.50;1.00;;;;;;5008269;28;20690;-78
2023/08/09 10:06:43;;;;;;;14.50;10.70;;;18.50;99.90;;;;;;5003663;28;20230;-78
2023/08/09 10:09:13;;;;;;;14.02;9.88;;;18.40;1.00;;;;;;4996998;28;20196;-78
2023/08/09 10:11:42;;;;;;;14.73;10.75;;;18.50;9.00;;;;;;5029278;28;20204;-78
2023/08/09 10:14:11;;;;;;;15.10;11.35;;;18.70;99.90;;;;;;5004584;28;20204;-78
2023/08/09 10:16:40;;;;;;;14.55;10.93;;;18.70;99.90;;;;;;5018112;28;20208;-78
2023/08/09 10:19:11;;;;;;;16.35;11.63;;;18.70;1.00;;;;;;5030427;28;20207;-78
2023/08/09 10:21:41;;;;;;;18.95;12.73;;;18.60;1.00;;;;;;4999525;28;20203;-78
2023/08/09 10:24:12;;;;;;;16.20;11.95;;;18.40;1.00;;;;;;5011053;28;20215;-78
2023/08/09 10:26:40;;;;;;;16.92;12.68;;;18.70;1.00;;;;;;5003567;28;20885;-78
2023/08/09 10:29:10;;;;;;;19.23;12.82;;;18.60;1.00;;;;;;5003825;28;20199;-78
2023/08/09 10:31:52;;;;;;;15.65;11.38;;;18.60;1.00;;;;;;4990936;28;20207;-78
2023/08/09 10:34:21;;;;;;;16.23;12.48;;;18.60;1.00;;;;;;4997331;28;20231;-78
2023/08/09 10:36:54;;;;;;;18.05;12.20;;;18.70;1.00;;;;;;4997244;28;20187;-78
2023/08/09 10:39:24;;;;;;;15.30;10.93;;;19.00;1.00;;;;;;5005201;28;20673;-78
2023/08/09 10:42:00;;;;;;;17.92;12.13;;;19.20;1.00;;;;;;4997565;28;20206;-78
2023/08/09 10:44:42;;;;;;;14.80;11.88;;;19.30;1.00;;;;;;4995987;28;20227;-78
2023/08/09 10:47:20;;;;;;;17.65;11.88;;;19.40;1.00;;;;;;5008370;28;20228;-77
2023/08/09 10:50:00;;;;;;;16.48;13.60;;;19.40;1.00;;;;;;4999522;28;20200;-79
2023/08/09 10:52:34;;;;;;;16.00;12.35;;;19.60;1.00;;;;;;4998562;28;20566;-78
2023/08/09 10:55:28;;;;;;;15.00;11.85;;;19.60;1.00;;;;;;5002863;28;20216;-78
2023/08/09 10:57:59;;;;;;;13.13;11.70;;;19.60;99.90;;;;;;4991606;28;20573;-78
2023/08/09 11:00:29;;;;;;;17.02;12.45;;;19.20;99.90;;;;;;5013986;28;20200;-78
2023/08/09 11:02:58;;;;;;;18.50;14.10;;;19.20;1.00;;;;;;5005800;28;20215;-78
2023/08/09 11:05:27;;;;;;;20.13;15.25;;;19.40;1.00;;;;;;5021666;28;20232;-78
2023/08/09 11:07:56;;;;;;;16.02;12.60;;;19.20;1.00;;;;;;4996478;28;20232;-78
2023/08/09 11:10:33;;;;;;;18.67;12.52;;;19.10;1.00;;;;;;4992991;28;20200;-78
2023/08/09 11:13:05;;;;;;;13.80;11.27;;;19.10;1.00;;;;;;4999708;28;20198;-78
2023/08/09 11:15:33;;;;;;;15.38;12.25;;;19.00;1.00;;;;;;4998412;28;20220;-78
2023/08/09 11:18:01;;;;;;;12.95;10.07;;;18.90;1.00;;;;;;5021996;28;20194;-78
2023/08/09 11:20:29;;;;;;;12.73;10.25;;;19.10;1.00;;;;;;5004302;28;20572;-78
2023/08/09 11:22:58;;;;;;;11.75;9.98;;;19.20;1.00;;;;;;5010123;28;20198;-78
2023/08/09 11:25:27;;;;;;;10.82;8.88;;;19.30;1.00;;;;;;5008719;28;20212;-78
2023/08/09 11:27:57;;;;;;;9.35;8.23;;;19.40;99.90;;;;;;5028512;23;20219;-81
2023/08/09 11:30:26;;;;;;;9.10;6.97;;;19.60;99.90;;;;;;5021666;28;20210;-81
2023/08/09 11:32:56;;;;;;;9.02;7.68;;;19.20;99.90;;;;;;5018234;28;20648;-82
2023/08/09 11:35:30;;;;;;;9.68;8.30;;;19.30;99.90;;;;;;5029601;28;20206;-82
2023/08/09 11:37:58;;;;;;;11.77;8.55;;;19.40;99.90;;;;;;5051918;28;20302;-82
2023/08/09 11:40:26;;;;;;;9.35;7.72;;;19.40;99.90;;;;;;5016781;28;20214;-82
2023/08/09 11:42:59;;;;;;;7.95;7.15;;;19.50;99.90;;;;;;5033208;28;20187;-82
2023/08/09 11:45:26;;;;;;;7.40;6.68;;;19.40;90.20;;;;;;5034569;28;20203;-81
2023/08/09 11:47:55;;;;;;;7.72;6.60;;;19.10;29.20;;;;;;5017531;28;20225;-81
2023/08/09 11:50:26;;;;;;;8.40;6.68;;;19.10;39.10;;;;;;5052182;28;20194;-82
2023/08/09 11:52:54;;;;;;;8.00;6.75;;;19.20;98.60;;;;;;5035674;28;20191;-82
2023/08/09 11:55:23;;;;;;;6.97;6.28;;;19.20;83.10;;;;;;5053675;28;20199;-82
2023/08/09 11:57:51;;;;;;;7.72;6.57;;;19.20;66.30;;;;;;5020660;28;20257;-81
2023/08/09 12:00:26;;;;;;;7.00;6.00;;;19.40;96.90;;;;;;5032527;28;20202;-82
2023/08/09 12:02:59;;;;;;;6.63;5.72;;;19.40;51.00;;;;;;5036268;28;20191;-82
2023/08/09 12:05:29;;;;;;;6.65;6.05;;;19.30;24.90;;;;;;5053804;28;20203;-82
2023/08/09 12:08:03;;;;;;;8.85;6.38;;;19.50;30.60;;;;;;5024414;28;20253;-81
2023/08/09 12:10:30;;;;;;;7.28;6.10;;;19.60;61.00;;;;;;5045159;28;20210;-82
2023/08/09 12:12:58;;;;;;;5.45;5.03;;;19.80;59.10;;;;;;5040803;28;20199;-82
2023/08/09 12:15:28;;;;;;;10.15;5.80;;;19.80;20.30;;;;;;5026859;28;20233;-82
2023/08/09 12:17:55;;;;;;;6.40;5.50;;;20.00;1.00;;;;;;5019105;28;20222;-83
2023/08/09 12:20:23;;;;;;;6.43;4.95;;;19.90;1.00;;;;;;5019810;28;20218;-82
2023/08/09 12:22:50;;;;;;;4.50;3.92;;;19.80;1.00;;;;;;5027533;28;20206;-82
2023/08/09 12:25:17;;;;;;;4.82;3.90;;;19.60;1.00;;;;;;5015998;28;20219;-82
2023/08/09 12:27:45;;;;;;;4.82;4.00;;;19.60;1.00;;;;;;5038792;28;20241;-82
2023/08/09 12:30:14;;;;;;;4.57;3.78;;;19.70;1.00;;;;;;5019063;28;20214;-82
2023/08/09 12:32:43;;;;;;;3.45;3.10;;;19.70;1.00;;;;;;5023413;28;20199;-82
2023/08/09 12:35:10;;;;;;;5.50;3.55;;;19.60;1.00;;;;;;5039824;28;20562;-82
2023/08/09 12:37:38;;;;;;;4.38;3.63;;;19.80;1.00;;;;;;5021540;28;20238;-82
2023/08/09 12:40:09;;;;;;;4.78;3.40;;;19.80;1.00;;;;;;5033715;28;20198;-82
2023/08/09 12:42:36;;;;;;;5.40;4.00;;;19.80;1.00;;;;;;5022382;28;20210;-82
2023/08/09 12:45:05;;;;;;;3.72;3.42;;;19.70;1.00;;;;;;5021217;28;20207;-82
2023/08/09 12:47:32;;;;;;;6.50;4.20;;;19.90;1.00;;;;;;5039854;28;20215;-82